Time;durP1;ratioP1;P1;durP2;ratioP2;P2;SDS_P1;SDS_P2;PMS_P1;PMS_P2;Temp;Humidity;BMP_temperature;BMP_pressure;BME280_temperature;BME280_humidity;BME280_pressure;Samples;Min_cycle;Max_cycle;Signal;HPM_P1;HPM_P2
2024/03/17 00:01:20;;;;;;;13.63;7.13;;;8.50;99.90;;;8.73;87.72;102118.25;4875959;29;20077;-70
2024/03/17 00:03:48;;;;;;;14.00;8.05;;;8.50;99.90;;;8.61;88.02;102113.59;4875864;29;20465;-70
2024/03/17 00:06:14;;;;;;;12.30;7.40;;;8.40;99.90;;;8.67;88.02;102112.84;4875849;29;20096;-70
2024/03/17 00:08:43;;;;;;;14.07;7.07;;;8.40;99.90;;;8.69;87.81;102106.72;4860330;29;20069;-70
2024/03/17 00:11:09;;;;;;;13.20;7.75;;;8.40;99.90;;;8.75;87.74;102114.78;4875618;29;20053;-70
2024/03/17 00:13:37;;;;;;;14.40;7.72;;;8.50;99.90;;;8.81;87.26;102114.91;4860700;29;20072;-70
2024/03/17 00:16:04;;;;;;;14.93;7.72;;;8.50;99.90;;;7.95;86.92;101957.34;4875851;29;20093;-70
2024/03/17 00:18:32;;;;;;;16.23;8.68;;;8.60;99.90;;;8.98;86.31;102107.41;4891399;29;20061;-70
2024/03/17 00:20:59;;;;;;;15.18;7.50;;;8.70;99.90;;;8.97;86.02;102106.50;4875880;29;20396;-70
2024/03/17 00:23:28;;;;;;;16.08;7.90;;;8.70;99.90;;;8.90;86.15;102109.84;4875761;29;20655;-70
2024/03/17 00:25:56;;;;;;;16.10;7.85;;;8.70;99.90;;;8.95;85.79;102102.03;4876113;29;20411;-70
2024/03/17 00:28:24;;;;;;;16.65;7.72;;;8.70;99.90;;;8.96;85.91;102109.13;4875705;29;20045;-70
2024/03/17 00:30:51;;;;;;;15.32;7.88;;;8.70;99.90;;;8.93;85.77;102109.03;4875536;29;20060;-71
2024/03/17 00:33:19;;;;;;;14.18;7.65;;;8.70;99.90;;;8.87;85.73;102104.50;4875611;29;20049;-70
2024/03/17 00:35:46;;;;;;;13.00;8.07;;;8.60;99.90;;;8.81;86.17;102104.38;4875594;29;20060;-70
2024/03/17 00:38:13;;;;;;;16.40;8.40;;;8.60;99.90;;;8.83;86.34;102096.47;4875667;29;20050;-71
2024/03/17 00:40:40;;;;;;;14.48;8.27;;;8.60;99.90;;;8.89;86.05;102097.53;4875598;29;20125;-70
2024/03/17 00:43:11;;;;;;;17.17;8.90;;;8.70;99.90;;;8.96;86.12;102096.78;4876166;29;20049;-70
2024/03/17 00:45:37;;;;;;;14.45;8.32;;;8.70;99.90;;;8.87;86.10;102090.41;4860170;29;20108;-71
2024/03/17 00:48:06;;;;;;;13.65;9.25;;;8.70;99.90;;;8.87;86.65;102099.22;4875636;29;20045;-70
2024/03/17 00:50:33;;;;;;;14.60;8.98;;;8.70;99.90;;;8.89;86.75;102094.88;4874971;29;20044;-70
2024/03/17 00:53:00;;;;;;;16.98;9.73;;;8.60;99.90;;;8.95;86.97;102094.13;4874978;29;20044;-70
2024/03/17 00:55:27;;;;;;;16.05;9.85;;;8.70;99.90;;;8.92;87.18;102097.56;4875033;29;20049;-70
2024/03/17 00:57:54;;;;;;;13.20;8.98;;;8.70;99.90;;;8.91;87.20;102084.34;4875107;29;20398;-70
2024/03/17 01:00:23;;;;;;;14.95;9.18;;;8.70;99.90;;;8.92;87.24;102081.75;4875140;29;20038;-71
2024/03/17 01:02:50;;;;;;;13.98;9.05;;;8.70;99.90;;;8.90;87.03;102086.09;4859458;29;20045;-70
2024/03/17 01:05:17;;;;;;;13.98;9.75;;;8.60;99.90;;;8.86;87.38;102086.00;4859727;29;20348;-70
2024/03/17 01:07:47;;;;;;;19.52;9.68;;;8.60;99.90;;;8.84;87.35;102071.91;4859428;29;20052;-70
2024/03/17 01:10:13;;;;;;;16.13;10.27;;;8.60;99.90;;;8.98;86.92;102075.72;4874900;29;20045;-70
2024/03/17 01:12:41;;;;;;;15.93;9.27;;;8.70;99.90;;;8.97;87.30;102066.00;4874882;29;20088;-70
2024/03/17 01:15:10;;;;;;;13.18;9.77;;;8.70;99.90;;;8.95;87.19;102060.72;4874908;29;20053;-70
2024/03/17 01:17:39;;;;;;;14.45;9.52;;;8.70;99.90;;;9.00;87.24;102063.47;4874939;29;20148;-70
2024/03/17 01:20:08;;;;;;;14.80;9.95;;;8.70;99.90;;;9.01;87.06;102052.94;4874965;29;20056;-71
2024/03/17 01:22:35;;;;;;;15.68;10.20;;;8.80;99.90;;;9.11;86.88;102056.66;4876181;29;20049;-70
2024/03/17 01:25:01;;;;;;;13.30;9.65;;;8.80;99.90;;;9.10;86.59;102063.66;4878271;29;20045;-70
2024/03/17 01:27:29;;;;;;;14.90;10.20;;;8.80;99.90;;;9.28;86.81;102065.78;4878430;29;20037;-70
2024/03/17 01:29:56;;;;;;;18.02;9.85;;;9.00;99.90;;;9.25;86.07;102067.47;4862764;29;20068;-70
2024/03/17 01:32:23;;;;;;;14.55;10.18;;;9.00;99.90;;;9.29;85.93;102059.63;4878332;29;20041;-70
2024/03/17 01:34:51;;;;;;;12.90;9.95;;;9.10;99.90;;;9.35;85.76;102061.53;4862754;29;20041;-70
2024/03/17 01:37:18;;;;;;;16.08;10.23;;;9.10;99.90;;;9.34;85.79;102049.16;4878312;29;20048;-70
2024/03/17 01:39:45;;;;;;;15.40;10.02;;;9.10;99.90;;;9.26;85.65;102054.31;4878319;29;20053;-70
2024/03/17 01:42:12;;;;;;;16.08;10.38;;;9.00;99.90;;;9.18;86.31;102037.41;4878131;29;20379;-70
2024/03/17 01:44:38;;;;;;;14.20;10.25;;;9.00;99.90;;;9.17;85.89;102027.75;4878131;29;20084;-70
2024/03/17 01:47:06;;;;;;;13.82;9.98;;;8.90;99.90;;;9.08;86.79;102040.72;4878346;29;20114;-70
2024/03/17 01:49:33;;;;;;;15.57;9.75;;;8.90;99.90;;;9.16;86.28;102039.13;4878303;29;20048;-70
2024/03/17 01:52:03;;;;;;;15.63;10.55;;;8.90;99.90;;;9.03;86.77;102029.19;4893525;29;20065;-70
2024/03/17 01:54:30;;;;;;;17.13;10.80;;;8.80;99.90;;;8.89;87.14;102028.03;4878271;29;20140;-70
2024/03/17 01:56:58;;;;;;;17.17;11.18;;;8.70;99.90;;;8.85;87.55;102023.53;4878255;29;20052;-70
2024/03/17 01:59:25;;;;;;;15.23;11.27;;;8.60;99.90;;;8.82;87.94;102028.75;4878390;29;20396;-70
2024/03/17 02:01:52;;;;;;;15.95;11.30;;;8.60;99.90;;;8.63;88.53;102016.91;4862758;29;20049;-69
2024/03/17 02:04:19;;;;;;;16.00;11.02;;;8.40;99.90;;;8.45;89.98;102015.63;4878206;29;20460;-70
2024/03/17 02:06:46;;;;;;;16.13;11.20;;;8.30;99.90;;;8.53;90.17;102027.22;4878105;29;20045;-70
2024/03/17 02:09:14;;;;;;;15.25;11.55;;;8.30;99.90;;;8.51;90.22;102006.13;4877884;29;20053;-70
2024/03/17 02:11:42;;;;;;;15.25;11.65;;;8.30;99.90;;;8.60;89.75;102014.22;4878117;29;20045;-70
2024/03/17 02:14:08;;;;;;;15.75;11.43;;;8.30;99.90;;;8.56;89.94;102008.81;4878194;29;20124;-70
2024/03/17 02:16:36;;;;;;;13.77;11.18;;;8.30;99.90;;;8.59;90.34;102003.63;4878180;29;20427;-70
2024/03/17 02:19:02;;;;;;;17.60;12.68;;;8.30;99.90;;;7.75;89.53;101860.28;4878559;29;20096;-70
2024/03/17 02:21:30;;;;;;;14.60;11.10;;;8.40;99.90;;;8.57;89.88;102006.25;4862519;29;20105;-70
2024/03/17 02:23:57;;;;;;;17.05;12.32;;;8.40;99.90;;;8.50;90.47;102008.69;4862348;29;20053;-70
2024/03/17 02:26:27;;;;;;;17.67;12.15;;;8.30;99.90;;;8.58;90.48;101999.19;4862336;29;20108;-70
2024/03/17 02:28:54;;;;;;;15.95;12.43;;;8.40;99.90;;;8.54;90.53;101992.97;4877820;29;20490;-70
2024/03/17 02:31:22;;;;;;;16.73;12.32;;;8.40;99.90;;;8.48;91.04;102006.03;4877776;29;20064;-70
2024/03/17 02:33:48;;;;;;;16.88;12.32;;;8.30;99.90;;;8.71;90.95;101996.00;4862073;29;20037;-70
2024/03/17 02:36:17;;;;;;;17.25;12.40;;;8.40;99.90;;;8.58;91.28;101984.28;4877715;29;20591;-70
2024/03/17 02:41:31;;;;;;;15.90;12.05;;;8.40;99.90;;;8.70;91.76;101984.56;4862431;29;20041;-70
2024/03/17 02:43:58;;;;;;;16.08;12.48;;;8.40;99.90;;;8.78;91.23;101982.06;4877442;29;20045;-70
2024/03/17 02:46:25;;;;;;;15.35;12.18;;;8.50;99.90;;;8.72;91.29;101974.03;4862270;29;20093;-70
2024/03/17 02:48:54;;;;;;;16.17;12.57;;;8.50;99.90;;;8.71;91.68;101975.75;4861924;29;20048;-70
2024/03/17 02:51:24;;;;;;;16.75;12.40;;;8.50;99.90;;;8.74;91.92;101975.84;4861933;29;20044;-70
2024/03/17 02:53:51;;;;;;;19.90;13.27;;;8.50;99.90;;;8.77;91.52;101978.53;4877480;29;20041;-70
2024/03/17 02:56:19;;;;;;;16.70;12.32;;;8.50;99.90;;;8.81;91.12;101958.38;4877298;29;20442;-70
2024/03/17 02:58:51;;;;;;;16.95;12.48;;;8.60;99.90;;;8.93;91.03;101978.00;4877329;29;20053;-70
2024/03/17 03:01:19;;;;;;;18.60;13.15;;;8.70;99.90;;;9.05;90.84;101966.78;4877516;29;20052;-70
2024/03/17 03:03:46;;;;;;;16.50;13.13;;;8.80;99.90;;;9.05;90.84;101962.41;4877449;29;20097;-70
2024/03/17 03:06:19;;;;;;;18.90;13.20;;;8.90;99.90;;;9.00;90.40;101985.16;4877287;29;20098;-70
2024/03/17 03:08:48;;;;;;;15.85;13.10;;;9.00;99.90;;;9.14;90.42;101934.41;4861619;29;20049;-70
2024/03/17 03:11:17;;;;;;;16.35;11.77;;;9.00;99.90;;;9.24;90.44;101968.00;4877103;29;20056;-70
2024/03/17 03:13:45;;;;;;;14.32;11.95;;;9.00;99.90;;;9.20;91.36;101955.63;4861401;29;20089;-70
2024/03/17 03:16:15;;;;;;;18.42;11.88;;;9.00;99.90;;;9.09;90.92;101953.69;4876972;29;20045;-70
2024/03/17 03:18:44;;;;;;;15.00;12.27;;;8.90;99.90;;;9.16;91.74;101941.47;4861365;29;20080;-70
2024/03/17 03:21:12;;;;;;;16.23;12.55;;;8.90;99.90;;;9.18;91.09;101941.50;4861570;29;20060;-70
2024/03/17 03:23:39;;;;;;;14.75;12.57;;;8.90;99.90;;;9.14;91.49;101931.78;4876761;29;20105;-70
2024/03/17 03:26:09;;;;;;;16.92;13.05;;;8.90;99.90;;;9.12;91.09;101926.44;4861275;29;20388;-70
2024/03/17 03:28:37;;;;;;;22.10;13.00;;;8.90;99.90;;;9.21;90.66;101926.63;4876593;29;20132;-70
2024/03/17 03:31:05;;;;;;;15.68;12.15;;;9.00;99.90;;;9.21;91.05;101926.63;4876925;29;20037;-70
2024/03/17 03:33:33;;;;;;;18.48;12.45;;;8.90;99.90;;;9.15;90.15;101929.16;4861149;29;20045;-70
2024/03/17 03:36:09;;;;;;;16.95;12.25;;;9.00;99.90;;;9.19;90.12;101930.09;4876785;29;20537;-70
2024/03/17 03:38:37;;;;;;;17.77;12.40;;;9.00;99.90;;;9.07;90.60;101921.09;4876759;29;20179;-70
2024/03/17 03:41:09;;;;;;;14.18;12.10;;;8.90;99.90;;;9.08;90.94;101914.06;4876525;29;20037;-70
2024/03/17 03:43:37;;;;;;;19.25;12.50;;;8.80;99.90;;;8.99;91.23;101909.50;4861155;29;20057;-70
2024/03/17 03:46:05;;;;;;;16.55;12.75;;;8.80;99.90;;;8.98;91.39;101904.22;4860257;29;20041;-71
2024/03/17 03:48:35;;;;;;;15.48;13.18;;;8.80;99.90;;;8.95;91.74;101907.66;4876921;29;20049;-70
2024/03/17 03:51:05;;;;;;;16.50;13.43;;;8.70;99.90;;;8.98;92.10;101907.72;4876374;29;20518;-70
2024/03/17 03:53:33;;;;;;;;;;;8.70;99.90;;;8.83;91.79;101880.16;4877282;29;20040;-70
2024/03/17 03:56:02;;;;;;;20.35;14.20;;;8.70;99.90;;;8.88;92.06;101892.56;4860751;29;19967;-70
2024/03/17 03:58:29;;;;;;;18.75;13.82;;;8.70;99.90;;;9.09;91.50;101911.47;4876181;29;20064;-70
2024/03/17 04:00:57;;;;;;;21.45;14.80;;;8.80;99.90;;;9.13;90.82;101901.84;4876207;29;20126;-70
2024/03/17 04:03:24;;;;;;;19.02;13.57;;;8.90;99.90;;;9.27;90.94;101895.03;4876346;29;20049;-70
2024/03/17 04:06:03;;;;;;;16.55;13.05;;;9.00;99.90;;;9.20;90.63;101900.19;4876138;29;20045;-70
2024/03/17 04:08:30;;;;;;;16.48;13.68;;;9.00;99.90;;;9.24;90.70;101899.38;4875896;29;20503;-70
2024/03/17 04:10:58;;;;;;;15.93;13.55;;;9.00;99.90;;;9.15;91.02;101897.47;4876216;29;20437;-70
2024/03/17 04:13:25;;;;;;;17.55;14.27;;;8.90;99.90;;;9.14;91.45;101903.59;4860831;29;20041;-70
2024/03/17 04:15:56;;;;;;;19.20;13.90;;;8.90;99.90;;;9.07;91.62;101897.34;4875981;29;20053;-70
2024/03/17 04:18:25;;;;;;;;;;;8.90;99.90;;;8.99;91.92;101887.50;4876777;29;20498;-70
2024/03/17 04:20:54;;;;;;;19.13;13.48;;;8.90;99.90;;;9.03;91.81;101895.50;4860473;29;19924;-70
2024/03/17 04:23:22;;;;;;;15.73;13.02;;;8.90;99.90;;;9.10;92.01;101891.22;4876345;29;20049;-70
2024/03/17 04:25:52;;;;;;;17.50;13.52;;;8.80;99.90;;;9.00;92.10;101882.25;4875942;29;20108;-70
2024/03/17 04:28:20;;;;;;;;;;;8.90;99.90;;;9.02;92.32;101891.06;4860887;29;20059;-70
2024/03/17 04:30:47;;;;;;;18.35;13.70;;;8.80;99.90;;;8.96;92.79;101892.75;4860697;29;19924;-70
2024/03/17 04:33:16;;;;;;;18.85;14.13;;;8.70;99.90;;;8.90;93.44;101882.06;4875852;29;20380;-70
2024/03/17 04:35:44;;;;;;;18.63;13.88;;;8.70;99.90;;;8.74;93.68;101851.88;4860541;29;20041;-70
2024/03/17 04:38:14;;;;;;;19.23;14.98;;;8.70;99.90;;;8.81;93.85;101888.03;4860795;29;20052;-70
2024/03/17 04:40:42;;;;;;;20.08;15.05;;;8.60;99.90;;;8.86;93.70;101882.88;4876080;29;20044;-70
2024/03/17 04:43:10;;;;;;;20.48;15.57;;;8.60;99.90;;;8.60;93.96;101849.81;4860335;29;20133;-70
2024/03/17 04:45:37;;;;;;;19.83;14.48;;;8.60;99.90;;;8.89;93.83;101886.44;4860334;29;20069;-70
2024/03/17 04:48:05;;;;;;;18.70;14.40;;;8.60;99.90;;;9.02;93.84;101882.25;4875712;29;20518;-70
2024/03/17 04:50:33;;;;;;;21.92;15.60;;;8.70;99.90;;;8.90;93.80;101882.94;4875785;29;20057;-70
2024/03/17 04:53:00;;;;;;;19.10;15.23;;;8.70;99.90;;;8.72;94.41;101873.78;4875715;29;20049;-70
2024/03/17 04:55:29;;;;;;;19.10;15.18;;;8.60;99.90;;;8.70;94.94;101867.59;4875453;29;20692;-70
2024/03/17 04:57:56;;;;;;;20.17;15.63;;;8.50;99.90;;;8.63;95.29;101868.34;4878100;29;20053;-70
2024/03/17 05:00:24;;;;;;;18.90;15.48;;;8.40;99.90;;;8.61;95.62;101864.78;4879306;29;20045;-70
2024/03/17 05:02:51;;;;;;;19.17;14.88;;;8.40;99.90;;;8.58;96.43;101873.53;4879799;29;20059;-70
2024/03/17 05:05:19;;;;;;;24.17;15.75;;;8.40;99.90;;;8.58;96.54;101868.25;4879159;29;20052;-70
2024/03/17 05:07:46;;;;;;;22.73;15.82;;;8.30;99.90;;;8.52;96.81;101865.50;4879238;29;20064;-69
2024/03/17 05:10:13;;;;;;;22.48;16.20;;;8.30;99.90;;;8.62;96.70;101866.56;4863935;29;20037;-70
2024/03/17 05:12:42;;;;;;;19.83;15.77;;;8.40;99.90;;;8.54;97.18;101866.41;4879083;29;20051;-70
2024/03/17 05:15:10;;;;;;;21.30;16.02;;;8.40;99.90;;;8.59;96.75;101855.97;4879148;29;20500;-70
2024/03/17 05:17:37;;;;;;;21.65;16.27;;;8.40;99.90;;;8.53;97.38;101874.31;4879014;29;20045;-70
2024/03/17 05:20:08;;;;;;;25.73;15.50;;;8.30;99.90;;;8.65;97.19;101871.91;4879244;29;20052;-70
2024/03/17 05:22:35;;;;;;;25.70;16.73;;;8.40;99.90;;;8.57;97.22;101868.22;4863868;29;20048;-70
2024/03/17 05:25:03;;;;;;;22.25;15.75;;;8.40;99.90;;;8.60;97.57;101869.19;4878950;29;20049;-70
2024/03/17 05:27:30;;;;;;;22.13;15.93;;;8.40;99.90;;;8.69;97.11;101871.13;4878837;29;20053;-70
2024/03/17 05:29:59;;;;;;;22.42;16.35;;;8.40;99.90;;;8.63;97.51;101863.09;4879379;29;20041;-70
2024/03/17 05:32:26;;;;;;;18.73;16.45;;;8.40;99.90;;;8.75;97.58;101863.31;4878762;29;20041;-70
2024/03/17 05:34:54;;;;;;;22.98;16.90;;;8.50;99.90;;;8.65;97.54;101866.63;4878716;29;20455;-70
2024/03/17 05:37:21;;;;;;;27.10;17.10;;;8.50;99.90;;;8.67;97.75;101863.16;4863302;29;20535;-70
2024/03/17 05:39:49;;;;;;;19.83;16.48;;;8.50;99.90;;;8.62;98.00;101856.91;4878978;29;20045;-70
2024/03/17 05:42:16;;;;;;;22.42;17.17;;;8.40;99.90;;;8.67;98.18;101864.91;4878591;29;20081;-70
2024/03/17 05:44:50;;;;;;;21.60;16.98;;;8.40;99.90;;;8.72;97.52;101860.59;4878757;29;20053;-70
2024/03/17 05:47:19;;;;;;;21.75;16.40;;;8.50;99.90;;;8.68;98.01;101848.22;4863225;29;20511;-70
2024/03/17 05:49:47;;;;;;;21.77;15.88;;;8.50;99.90;;;8.70;98.28;101849.13;4878434;29;20055;-70
2024/03/17 05:52:14;;;;;;;20.60;16.58;;;8.40;99.90;;;8.70;97.96;101851.78;4878438;29;20045;-70
2024/03/17 05:54:41;;;;;;;21.88;16.00;;;8.50;99.90;;;8.69;98.28;101855.28;4878418;29;20399;-70
2024/03/17 05:57:11;;;;;;;20.52;16.75;;;8.50;99.90;;;8.72;98.10;101853.59;4878317;29;20418;-70
2024/03/17 05:59:39;;;;;;;21.35;15.70;;;8.50;99.90;;;8.76;98.15;101849.25;4863057;29;20048;-70
2024/03/17 06:02:06;;;;;;;24.88;17.70;;;8.50;99.90;;;8.64;98.44;101856.94;4878195;29;20040;-70
2024/03/17 06:04:35;;;;;;;19.88;16.30;;;8.50;99.90;;;8.57;99.15;101852.41;4862759;29;20107;-70
2024/03/17 06:07:02;;;;;;;19.98;16.45;;;8.40;99.90;;;8.51;99.45;101844.38;4878521;29;20112;-70
2024/03/17 06:09:30;;;;;;;23.08;16.92;;;8.30;99.90;;;8.67;99.32;101862.28;4877757;29;20090;-70
2024/03/17 06:11:57;;;;;;;21.70;15.95;;;8.40;99.90;;;8.76;99.24;101858.06;4878318;29;20049;-70
2024/03/17 06:14:24;;;;;;;24.25;17.08;;;8.50;99.90;;;8.77;98.67;101858.94;4878190;29;20044;-70
2024/03/17 06:16:52;;;;;;;24.60;16.50;;;8.50;99.90;;;8.74;98.89;101867.69;4862422;29;20056;-70
2024/03/17 06:19:19;;;;;;;24.75;17.27;;;8.50;99.90;;;8.70;99.40;101857.06;4878236;29;20398;-70
2024/03/17 06:21:48;;;;;;;25.10;16.83;;;8.50;99.90;;;8.87;98.66;101868.81;4877966;29;20052;-70
2024/03/17 06:24:16;;;;;;;23.33;17.17;;;8.60;99.90;;;8.83;99.27;101859.06;4877873;29;20044;-70
2024/03/17 06:26:43;;;;;;;22.23;16.77;;;8.60;99.90;;;8.89;99.13;101861.81;4878120;29;20140;-70
2024/03/17 06:29:10;;;;;;;20.27;16.67;;;8.60;99.90;;;8.89;98.92;101869.72;4878009;29;20092;-70
2024/03/17 06:31:38;;;;;;;20.42;15.88;;;8.70;99.90;;;9.04;98.62;101870.00;4877787;29;20052;-70
2024/03/17 06:34:05;;;;;;;23.52;16.23;;;8.70;99.90;;;9.33;97.42;101871.38;4877672;29;20499;-70
2024/03/17 06:36:32;;;;;;;19.88;16.17;;;9.00;99.90;;;9.30;96.40;101878.38;4877605;29;20040;-69
2024/03/17 06:39:01;;;;;;;24.23;17.55;;;9.00;99.90;;;9.37;96.59;101873.22;4877833;29;20049;-70
2024/03/17 06:41:28;;;;;;;24.73;16.55;;;9.10;99.90;;;9.48;96.36;101873.41;4877565;29;20052;-70
2024/03/17 06:43:56;;;;;;;20.35;16.17;;;9.20;99.90;;;9.52;95.77;101870.84;4877660;29;20100;-70
2024/03/17 06:46:23;;;;;;;19.20;16.08;;;9.30;99.90;;;9.60;95.79;101879.75;4862311;29;20073;-70
2024/03/17 06:48:51;;;;;;;21.15;15.35;;;9.40;99.90;;;9.61;95.80;101873.63;4877405;29;20511;-70
2024/03/17 06:51:18;;;;;;;18.23;15.20;;;9.40;99.90;;;9.75;96.06;101874.72;4877694;29;20049;-70
2024/03/17 06:53:46;;;;;;;21.05;16.45;;;9.50;99.90;;;9.75;96.93;101872.09;4877497;29;20045;-70
2024/03/17 06:56:14;;;;;;;20.23;15.77;;;9.60;99.90;;;9.77;96.14;101878.28;4877210;29;20049;-70
2024/03/17 06:58:42;;;;;;;20.33;15.88;;;9.50;99.90;;;9.74;95.98;101872.03;4877404;29;20041;-70
2024/03/17 07:01:10;;;;;;;24.35;16.20;;;9.50;99.90;;;9.61;96.04;101867.44;4877714;29;20049;-72
2024/03/17 07:03:38;;;;;;;20.65;15.63;;;9.40;99.90;;;9.56;96.61;101869.13;4861543;29;20045;-73
2024/03/17 07:06:07;;;;;;;20.40;14.88;;;9.40;99.90;;;9.47;96.72;101864.59;4877266;29;20153;-71
2024/03/17 07:08:35;;;;;;;19.92;14.75;;;9.30;99.90;;;9.50;96.19;101877.84;4874519;29;20061;-71
2024/03/17 07:11:05;;;;;;;20.08;15.52;;;9.30;99.90;;;9.70;95.95;101884.31;4874076;29;20189;-71
2024/03/17 07:13:36;;;;;;;20.92;15.43;;;9.40;99.90;;;9.71;95.99;101896.69;4857944;29;20055;-70
2024/03/17 07:16:06;;;;;;;21.83;16.23;;;9.50;99.90;;;9.82;95.87;101891.53;4873531;29;20042;-70
2024/03/17 07:18:34;;;;;;;18.20;15.82;;;9.60;99.90;;;9.81;95.78;101889.78;4873726;29;20106;-71
2024/03/17 07:21:03;;;;;;;19.05;15.38;;;9.60;99.90;;;9.76;95.80;101883.50;4889618;29;20041;-71
2024/03/17 07:23:32;;;;;;;22.27;15.50;;;9.60;99.90;;;9.67;95.79;101889.56;4873626;29;20060;-72
2024/03/17 07:26:01;;;;;;;19.67;15.30;;;9.50;99.90;;;9.77;96.18;101901.16;4873722;29;20057;-71
2024/03/17 07:28:29;;;;;;;19.77;14.98;;;9.60;99.90;;;9.68;96.48;101896.59;4858103;29;20076;-71
2024/03/17 07:31:01;;;;;;;19.67;15.13;;;9.50;99.90;;;9.74;96.40;101882.59;4858347;29;20069;-71
2024/03/17 07:33:29;;;;;;;23.80;16.00;;;9.50;99.90;;;9.65;95.88;101891.28;4873549;29;20049;-71
2024/03/17 07:36:00;;;;;;;22.02;16.42;;;9.40;99.90;;;9.76;96.47;101881.78;4873662;29;20132;-70
2024/03/17 07:38:30;;;;;;;17.27;14.95;;;9.50;99.90;;;9.65;96.26;101875.44;4873433;29;20133;-70
2024/03/17 07:41:01;;;;;;;24.55;15.52;;;9.50;99.90;;;9.58;96.66;101854.19;4858035;29;20411;-71
2024/03/17 07:43:31;;;;;;;25.25;16.38;;;9.50;99.90;;;9.85;97.00;101895.09;4873748;29;20480;-71
2024/03/17 07:46:02;;;;;;;25.23;16.52;;;9.60;99.90;;;9.95;97.04;101899.66;4873277;29;20049;-70
2024/03/17 07:48:29;;;;;;;21.88;15.38;;;9.60;99.90;;;9.93;96.63;101900.50;4873551;29;20049;-70
2024/03/17 07:50:58;;;;;;;22.10;15.73;;;9.70;99.90;;;9.91;96.78;101891.69;4873301;29;20038;-71
2024/03/17 07:53:26;;;;;;;19.45;15.07;;;9.70;99.90;;;9.94;96.31;101887.34;4857862;29;20061;-70
2024/03/17 07:56:01;;;;;;;21.83;15.30;;;9.70;99.90;;;10.14;96.70;101889.41;4873105;29;20052;-71
2024/03/17 07:58:29;;;;;;;21.90;15.02;;;9.90;99.90;;;9.95;95.97;101889.09;4873134;29;20056;-71
2024/03/17 08:01:02;;;;;;;21.67;16.27;;;9.70;99.90;;;9.98;96.68;101886.53;4872971;29;20048;-71
2024/03/17 08:03:31;;;;;;;19.85;15.05;;;9.80;99.90;;;10.01;96.60;101883.91;4888642;29;20052;-71
2024/03/17 08:05:59;;;;;;;20.15;14.63;;;9.80;99.90;;;10.03;96.87;101889.19;4873226;29;20049;-71
2024/03/17 08:08:26;;;;;;;20.90;15.35;;;9.70;99.90;;;10.15;97.39;101875.31;4872877;29;20062;-71
2024/03/17 08:10:54;;;;;;;20.70;14.85;;;9.90;99.90;;;9.99;96.95;101860.94;4873226;29;20050;-72
2024/03/17 08:13:22;;;;;;;20.75;15.20;;;9.90;99.90;;;9.92;97.43;101889.06;4873219;29;20049;-71
2024/03/17 08:15:57;;;;;;;22.08;15.55;;;9.70;99.90;;;9.77;98.22;101907.34;4888560;29;20045;-71
2024/03/17 08:18:27;;;;;;;20.48;15.27;;;9.60;99.90;;;9.67;98.64;101847.31;4857698;29;20041;-71
2024/03/17 08:20:55;;;;;;;21.23;15.90;;;9.60;99.90;;;9.76;99.80;101881.78;4888293;29;20041;-71
2024/03/17 08:23:23;;;;;;;18.42;15.75;;;9.50;99.90;;;9.77;99.21;101882.66;4872799;29;20049;-69
2024/03/17 08:25:54;;;;;;;17.95;14.82;;;9.50;99.90;;;9.88;99.01;101881.97;4872995;29;20057;-70
2024/03/17 08:28:22;;;;;;;18.40;14.98;;;9.60;99.90;;;9.78;99.29;101882.69;4872644;29;20045;-70
2024/03/17 08:30:54;;;;;;;20.42;15.30;;;9.50;99.90;;;9.87;99.31;101869.59;4872825;29;20045;-70
2024/03/17 08:33:22;;;;;;;20.15;15.48;;;9.60;99.90;;;9.84;99.61;101864.28;4872348;29;20503;-71
2024/03/17 08:35:59;;;;;;;23.70;15.70;;;9.70;99.90;;;9.99;100.00;101880.34;4857560;29;20042;-70
2024/03/17 08:38:28;;;;;;;19.40;15.15;;;9.80;99.90;;;10.13;99.20;101875.28;4857547;29;20082;-70
2024/03/17 08:40:56;;;;;;;25.90;16.45;;;9.90;99.90;;;10.18;99.71;101886.78;4857100;29;20519;-71
2024/03/17 08:43:25;;;;;;;19.90;15.55;;;9.90;99.90;;;10.16;99.58;101877.09;4856967;29;20097;-71
2024/03/17 08:46:01;;;;;;;21.35;15.70;;;9.90;99.90;;;10.10;98.68;101837.34;4857121;29;20479;-71
2024/03/17 08:48:30;;;;;;;21.02;16.00;;;10.00;99.90;;;10.34;99.06;101872.03;4872820;29;20053;-71
2024/03/17 08:51:00;;;;;;;23.70;16.35;;;10.10;99.90;;;10.39;98.39;101879.19;4857376;29;20041;-71
2024/03/17 08:53:27;;;;;;;18.17;15.45;;;10.10;99.90;;;10.58;98.07;101877.63;4857006;29;20522;-70
2024/03/17 08:55:55;;;;;;;21.83;16.05;;;10.30;99.90;;;10.52;97.42;101866.97;4872340;29;20049;-70
2024/03/17 08:58:23;;;;;;;18.38;14.50;;;10.30;99.90;;;10.64;97.17;101868.00;4872310;29;20472;-71
2024/03/17 09:00:51;;;;;;;19.48;14.70;;;10.40;99.90;;;10.61;97.91;101869.72;4872318;29;20076;-70
2024/03/17 09:03:19;;;;;;;20.67;15.35;;;10.40;99.90;;;10.74;97.89;101869.00;4872702;29;20048;-70
2024/03/17 09:05:48;;;;;;;19.17;14.10;;;10.40;99.90;;;10.78;97.29;101868.16;4872833;29;20089;-71
2024/03/17 09:08:20;;;;;;;20.65;14.35;;;10.50;99.90;;;10.98;97.07;101865.69;4872286;29;20050;-71
2024/03/17 09:10:49;;;;;;;20.42;14.77;;;10.70;99.90;;;11.06;97.30;101861.38;4872520;29;20038;-70
2024/03/17 09:13:19;;;;;;;17.67;13.90;;;10.80;99.90;;;11.16;95.76;101850.88;4887976;29;20081;-70
2024/03/17 09:15:54;;;;;;;19.07;13.77;;;10.90;99.90;;;11.22;96.01;101858.00;4856631;29;20492;-71
2024/03/17 09:18:21;;;;;;;18.15;14.15;;;11.00;99.90;;;11.36;95.85;101859.00;4856693;29;20049;-71
2024/03/17 09:20:58;;;;;;;15.93;13.23;;;11.10;99.90;;;11.27;96.06;101846.56;4872059;29;20098;-71
2024/03/17 09:23:27;;;;;;;19.88;14.07;;;11.10;99.90;;;11.34;95.69;101850.16;4857226;29;20061;-70
2024/03/17 09:25:59;;;;;;;18.10;13.60;;;11.10;99.90;;;11.64;95.58;101832.72;4856757;29;20045;-71
2024/03/17 09:28:26;;;;;;;21.35;14.63;;;11.30;99.90;;;11.62;95.27;101850.38;4872722;29;20049;-68
2024/03/17 09:30:56;;;;;;;18.60;14.15;;;11.40;99.90;;;11.90;94.10;101845.28;4872705;29;20049;-69
2024/03/17 09:33:24;;;;;;;17.17;13.07;;;11.60;99.90;;;11.89;93.66;101843.50;4856471;29;20049;-69
2024/03/17 09:35:55;;;;;;;18.08;13.80;;;11.70;99.90;;;11.95;93.45;101843.53;4872226;29;20160;-70
2024/03/17 09:38:24;;;;;;;18.50;13.57;;;11.80;99.90;;;11.87;93.55;101840.84;4872116;29;20081;-69
2024/03/17 09:40:54;;;;;;;17.00;13.60;;;11.60;99.90;;;11.86;94.46;101806.38;4872672;29;20049;-69
2024/03/17 09:43:23;;;;;;;19.48;14.82;;;11.70;99.90;;;11.99;94.28;101840.91;4872088;29;20598;-69
2024/03/17 09:45:54;;;;;;;17.83;13.20;;;11.80;99.90;;;12.09;93.53;101836.53;4875377;29;20651;-70
2024/03/17 09:48:22;;;;;;;18.17;13.23;;;11.90;99.90;;;12.19;93.95;101833.06;4859789;29;20046;-69
2024/03/17 09:50:53;;;;;;;23.30;13.90;;;11.90;99.90;;;12.23;92.63;101845.47;4875365;29;20689;-69
2024/03/17 09:53:25;;;;;;;18.63;12.98;;;12.00;99.90;;;12.36;93.49;101831.38;4875166;29;20385;-70
2024/03/17 09:55:59;;;;;;;17.15;12.82;;;12.10;99.90;;;12.38;93.26;101830.50;4875434;29;20046;-69
2024/03/17 09:58:27;;;;;;;16.95;12.80;;;12.10;99.90;;;12.42;94.03;101828.72;4875284;29;20129;-70
2024/03/17 10:00:54;;;;;;;18.52;13.00;;;12.20;99.90;;;12.46;93.04;101838.47;4875504;29;20038;-72
2024/03/17 10:03:44;;;;;;;23.52;12.88;;;12.20;99.90;;;12.61;93.38;101844.72;4875632;29;20181;-72
2024/03/17 10:06:13;;;;;;;16.08;11.77;;;12.40;99.90;;;12.79;92.81;101832.38;4875430;29;20050;-72
2024/03/17 10:08:48;;;;;;;18.73;12.63;;;12.60;99.90;;;12.87;91.48;101836.81;4875000;29;20054;-71
2024/03/17 10:11:19;;;;;;;19.75;12.38;;;12.70;99.90;;;12.94;91.53;101859.84;4859561;29;20048;-71
2024/03/17 10:13:46;;;;;;;16.02;12.02;;;12.70;99.90;;;13.00;93.33;101830.63;4859959;29;20042;-71
2024/03/17 10:16:25;;;;;;;15.13;12.15;;;12.80;99.90;;;13.09;91.82;101828.00;4874979;29;20056;-71
2024/03/17 10:18:53;;;;;;;22.67;12.57;;;12.90;99.90;;;13.15;92.31;101835.09;4874882;29;20064;-71
2024/03/17 10:21:28;;;;;;;16.13;12.20;;;13.00;99.90;;;12.88;92.24;101827.97;4859183;29;20046;-71